sensor_id;sensor_type;location;lat;lon;timestamp;temperature;humidity
81216;DHT22;70688;52.492;13.420;2023-07-22T00:00:43;15.40;78.10
81216;DHT22;70688;52.492;13.420;2023-07-22T00:03:08;15.30;78.20
81216;DHT22;70688;52.492;13.420;2023-07-22T00:05:34;15.50;78.10
81216;DHT22;70688;52.492;13.420;2023-07-22T00:08:00;15.70;77.10
81216;DHT22;70688;52.492;13.420;2023-07-22T00:10:25;15.60;76.70
81216;DHT22;70688;52.492;13.420;2023-07-22T00:12:51;15.80;76.70
81216;DHT22;70688;52.492;13.420;2023-07-22T00:15:16;15.80;76.90
81216;DHT22;70688;52.492;13.420;2023-07-22T00:17:42;15.70;76.40
81216;DHT22;70688;52.492;13.420;2023-07-22T00:20:09;15.80;77.30
81216;DHT22;70688;52.492;13.420;2023-07-22T00:22:37;15.70;76.20
81216;DHT22;70688;52.492;13.420;2023-07-22T00:25:11;15.70;76.50
81216;DHT22;70688;52.492;13.420;2023-07-22T00:27:38;15.80;76.30
81216;DHT22;70688;52.492;13.420;2023-07-22T00:30:07;15.80;76.30
81216;DHT22;70688;52.492;13.420;2023-07-22T00:32:34;15.70;76.50
81216;DHT22;70688;52.492;13.420;2023-07-22T00:34:59;15.60;77.30
81216;DHT22;70688;52.492;13.420;2023-07-22T00:37:25;15.50;77.80
81216;DHT22;70688;52.492;13.420;2023-07-22T00:39:51;15.40;78.70
81216;DHT22;70688;52.492;13.420;2023-07-22T00:42:16;15.30;79.40
81216;DHT22;70688;52.492;13.420;2023-07-22T00:44:42;15.50;78.60
81216;DHT22;70688;52.492;13.420;2023-07-22T00:47:08;15.60;78.30
81216;DHT22;70688;52.492;13.420;2023-07-22T00:49:35;15.60;78.10
81216;DHT22;70688;52.492;13.420;2023-07-22T00:52:02;15.70;77.70
81216;DHT22;70688;52.492;13.420;2023-07-22T00:54:28;15.90;77.30
81216;DHT22;70688;52.492;13.420;2023-07-22T00:56:54;15.90;76.90
81216;DHT22;70688;52.492;13.420;2023-07-22T00:59:21;16.00;76.50
81216;DHT22;70688;52.492;13.420;2023-07-22T01:01:47;16.20;76.20
81216;DHT22;70688;52.492;13.420;2023-07-22T01:04:14;16.40;75.50
81216;DHT22;70688;52.492;13.420;2023-07-22T01:06:40;16.30;75.50
81216;DHT22;70688;52.492;13.420;2023-07-22T01:09:06;16.40;75.20
81216;DHT22;70688;52.492;13.420;2023-07-22T01:11:34;16.50;75.20
81216;DHT22;70688;52.492;13.420;2023-07-22T01:14:00;16.60;74.70
81216;DHT22;70688;52.492;13.420;2023-07-22T01:16:27;16.50;74.10
81216;DHT22;70688;52.492;13.420;2023-07-22T01:18:53;16.70;73.20
81216;DHT22;70688;52.492;13.420;2023-07-22T01:21:21;16.80;72.10
81216;DHT22;70688;52.492;13.420;2023-07-22T01:23:48;16.80;72.00
81216;DHT22;70688;52.492;13.420;2023-07-22T01:26:14;16.80;72.10
81216;DHT22;70688;52.492;13.420;2023-07-22T01:28:39;17.00;71.70
81216;DHT22;70688;52.492;13.420;2023-07-22T01:31:05;17.10;71.50
81216;DHT22;70688;52.492;13.420;2023-07-22T01:33:31;17.00;71.80
81216;DHT22;70688;52.492;13.420;2023-07-22T01:35:57;17.00;71.30
81216;DHT22;70688;52.492;13.420;2023-07-22T01:38:23;17.20;70.80
81216;DHT22;70688;52.492;13.420;2023-07-22T01:40:48;17.00;71.70
81216;DHT22;70688;52.492;13.420;2023-07-22T01:43:14;17.00;72.10
81216;DHT22;70688;52.492;13.420;2023-07-22T01:45:40;17.00;71.50
81216;DHT22;70688;52.492;13.420;2023-07-22T01:48:05;17.00;71.90
81216;DHT22;70688;52.492;13.420;2023-07-22T01:50:32;17.00;71.10
81216;DHT22;70688;52.492;13.420;2023-07-22T01:52:57;17.10;71.30
81216;DHT22;70688;52.492;13.420;2023-07-22T01:55:23;17.00;71.80
81216;DHT22;70688;52.492;13.420;2023-07-22T01:57:49;16.90;72.20
81216;DHT22;70688;52.492;13.420;2023-07-22T02:00:14;16.80;72.90
81216;DHT22;70688;52.492;13.420;2023-07-22T02:02:43;16.90;72.20
81216;DHT22;70688;52.492;13.420;2023-07-22T02:05:09;17.00;71.60
81216;DHT22;70688;52.492;13.420;2023-07-22T02:07:38;17.10;71.20
81216;DHT22;70688;52.492;13.420;2023-07-22T02:10:04;17.00;71.00
81216;DHT22;70688;52.492;13.420;2023-07-22T02:12:31;16.90;71.30
81216;DHT22;70688;52.492;13.420;2023-07-22T02:14:56;16.90;71.70
81216;DHT22;70688;52.492;13.420;2023-07-22T02:17:22;16.90;71.50
81216;DHT22;70688;52.492;13.420;2023-07-22T02:19:49;16.90;71.00
81216;DHT22;70688;52.492;13.420;2023-07-22T02:22:15;16.90;70.40
81216;DHT22;70688;52.492;13.420;2023-07-22T02:24:40;17.00;70.20
81216;DHT22;70688;52.492;13.420;2023-07-22T02:27:06;16.90;70.50
81216;DHT22;70688;52.492;13.420;2023-07-22T02:29:34;16.80;71.00
81216;DHT22;70688;52.492;13.420;2023-07-22T02:31:59;16.80;70.80
81216;DHT22;70688;52.492;13.420;2023-07-22T02:34:25;16.80;70.20
81216;DHT22;70688;52.492;13.420;2023-07-22T02:36:51;16.60;70.60
81216;DHT22;70688;52.492;13.420;2023-07-22T02:39:17;16.40;71.80
81216;DHT22;70688;52.492;13.420;2023-07-22T02:41:42;16.50;71.50
81216;DHT22;70688;52.492;13.420;2023-07-22T02:44:08;16.50;71.20
81216;DHT22;70688;52.492;13.420;2023-07-22T02:46:34;16.60;71.10
81216;DHT22;70688;52.492;13.420;2023-07-22T02:48:59;16.50;71.20
81216;DHT22;70688;52.492;13.420;2023-07-22T02:51:25;16.40;71.50
81216;DHT22;70688;52.492;13.420;2023-07-22T02:53:51;16.50;70.90
81216;DHT22;70688;52.492;13.420;2023-07-22T02:56:16;16.40;71.20
81216;DHT22;70688;52.492;13.420;2023-07-22T02:58:42;16.40;71.10
81216;DHT22;70688;52.492;13.420;2023-07-22T03:01:08;16.40;70.70
81216;DHT22;70688;52.492;13.420;2023-07-22T03:03:36;16.30;70.90
81216;DHT22;70688;52.492;13.420;2023-07-22T03:06:02;16.20;71.20
81216;DHT22;70688;52.492;13.420;2023-07-22T03:08:29;16.20;71.30
81216;DHT22;70688;52.492;13.420;2023-07-22T03:10:55;16.30;71.50
81216;DHT22;70688;52.492;13.420;2023-07-22T03:13:21;16.40;71.20
81216;DHT22;70688;52.492;13.420;2023-07-22T03:15:47;16.40;70.80
81216;DHT22;70688;52.492;13.420;2023-07-22T03:18:12;16.30;71.40
81216;DHT22;70688;52.492;13.420;2023-07-22T03:20:39;16.30;71.20
81216;DHT22;70688;52.492;13.420;2023-07-22T03:23:05;16.30;71.10
81216;DHT22;70688;52.492;13.420;2023-07-22T03:25:32;16.30;71.10
81216;DHT22;70688;52.492;13.420;2023-07-22T03:28:03;16.40;70.90
81216;DHT22;70688;52.492;13.420;2023-07-22T03:30:29;16.30;71.50
81216;DHT22;70688;52.492;13.420;2023-07-22T03:32:55;16.30;71.30
81216;DHT22;70688;52.492;13.420;2023-07-22T03:35:20;16.20;71.80
81216;DHT22;70688;52.492;13.420;2023-07-22T03:37:46;16.30;71.40
81216;DHT22;70688;52.492;13.420;2023-07-22T03:40:11;16.40;70.90
81216;DHT22;70688;52.492;13.420;2023-07-22T03:42:41;16.40;71.10
81216;DHT22;70688;52.492;13.420;2023-07-22T03:45:08;16.30;71.40
81216;DHT22;70688;52.492;13.420;2023-07-22T03:47:35;16.40;71.00
81216;DHT22;70688;52.492;13.420;2023-07-22T03:50:00;16.40;70.90
81216;DHT22;70688;52.492;13.420;2023-07-22T03:52:26;16.40;70.90
81216;DHT22;70688;52.492;13.420;2023-07-22T03:54:51;16.40;71.30
81216;DHT22;70688;52.492;13.420;2023-07-22T03:57:17;16.50;70.50
81216;DHT22;70688;52.492;13.420;2023-07-22T03:59:43;16.50;70.30
81216;DHT22;70688;52.492;13.420;2023-07-22T04:02:08;16.60;69.70
81216;DHT22;70688;52.492;13.420;2023-07-22T04:04:34;16.60;70.00
81216;DHT22;70688;52.492;13.420;2023-07-22T04:06:59;16.70;69.10
81216;DHT22;70688;52.492;13.420;2023-07-22T04:09:27;17.00;67.90
81216;DHT22;70688;52.492;13.420;2023-07-22T04:11:52;16.80;68.40
81216;DHT22;70688;52.492;13.420;2023-07-22T04:14:18;16.70;68.60
81216;DHT22;70688;52.492;13.420;2023-07-22T04:16:43;16.70;68.70
81216;DHT22;70688;52.492;13.420;2023-07-22T04:19:09;17.00;66.70
81216;DHT22;70688;52.492;13.420;2023-07-22T04:21:35;17.20;65.60
81216;DHT22;70688;52.492;13.420;2023-07-22T04:24:00;17.30;65.80
81216;DHT22;70688;52.492;13.420;2023-07-22T04:26:26;17.40;65.50
81216;DHT22;70688;52.492;13.420;2023-07-22T04:28:51;17.30;65.00
81216;DHT22;70688;52.492;13.420;2023-07-22T04:31:17;17.30;64.60
81216;DHT22;70688;52.492;13.420;2023-07-22T04:33:44;17.70;63.70
81216;DHT22;70688;52.492;13.420;2023-07-22T04:36:09;18.10;62.30
81216;DHT22;70688;52.492;13.420;2023-07-22T04:38:35;18.40;61.20
81216;DHT22;70688;52.492;13.420;2023-07-22T04:41:02;18.30;60.90
81216;DHT22;70688;52.492;13.420;2023-07-22T04:43:29;18.50;60.60
81216;DHT22;70688;52.492;13.420;2023-07-22T04:45:54;18.20;61.30
81216;DHT22;70688;52.492;13.420;2023-07-22T04:48:21;18.40;60.70
81216;DHT22;70688;52.492;13.420;2023-07-22T04:50:50;18.80;59.00
81216;DHT22;70688;52.492;13.420;2023-07-22T04:53:17;19.40;57.10
81216;DHT22;70688;52.492;13.420;2023-07-22T04:55:43;19.90;56.10
81216;DHT22;70688;52.492;13.420;2023-07-22T04:58:08;20.00;55.50
81216;DHT22;70688;52.492;13.420;2023-07-22T05:00:37;19.90;55.40
81216;DHT22;70688;52.492;13.420;2023-07-22T05:03:03;19.90;55.20
81216;DHT22;70688;52.492;13.420;2023-07-22T05:05:29;19.90;55.30
81216;DHT22;70688;52.492;13.420;2023-07-22T05:07:55;20.00;54.80
81216;DHT22;70688;52.492;13.420;2023-07-22T05:10:21;20.30;54.00
81216;DHT22;70688;52.492;13.420;2023-07-22T05:12:47;20.40;53.80
81216;DHT22;70688;52.492;13.420;2023-07-22T05:15:13;20.50;53.50
81216;DHT22;70688;52.492;13.420;2023-07-22T05:17:39;20.60;53.10
81216;DHT22;70688;52.492;13.420;2023-07-22T05:20:05;20.20;53.80
81216;DHT22;70688;52.492;13.420;2023-07-22T05:22:38;20.00;54.70
81216;DHT22;70688;52.492;13.420;2023-07-22T05:25:05;20.10;54.40
81216;DHT22;70688;52.492;13.420;2023-07-22T05:27:31;20.30;53.80
81216;DHT22;70688;52.492;13.420;2023-07-22T05:29:57;20.00;54.40
81216;DHT22;70688;52.492;13.420;2023-07-22T05:32:23;19.90;54.90
81216;DHT22;70688;52.492;13.420;2023-07-22T05:34:48;19.30;56.80
81216;DHT22;70688;52.492;13.420;2023-07-22T05:37:14;19.10;58.20
81216;DHT22;70688;52.492;13.420;2023-07-22T05:39:40;19.30;57.50
81216;DHT22;70688;52.492;13.420;2023-07-22T05:42:06;19.50;56.60
81216;DHT22;70688;52.492;13.420;2023-07-22T05:44:31;19.60;55.60
81216;DHT22;70688;52.492;13.420;2023-07-22T05:46:57;19.60;56.00
81216;DHT22;70688;52.492;13.420;2023-07-22T05:49:23;19.40;55.90
81216;DHT22;70688;52.492;13.420;2023-07-22T05:51:48;19.30;56.60
81216;DHT22;70688;52.492;13.420;2023-07-22T05:54:14;19.30;56.90
81216;DHT22;70688;52.492;13.420;2023-07-22T05:56:40;19.40;56.50
81216;DHT22;70688;52.492;13.420;2023-07-22T05:59:06;19.40;56.30
81216;DHT22;70688;52.492;13.420;2023-07-22T06:01:32;19.40;56.40
81216;DHT22;70688;52.492;13.420;2023-07-22T06:03:58;19.30;56.90
81216;DHT22;70688;52.492;13.420;2023-07-22T06:06:23;19.30;56.90
81216;DHT22;70688;52.492;13.420;2023-07-22T06:08:49;19.60;56.40
81216;DHT22;70688;52.492;13.420;2023-07-22T06:11:14;20.20;54.50
81216;DHT22;70688;52.492;13.420;2023-07-22T06:13:40;20.20;54.10
81216;DHT22;70688;52.492;13.420;2023-07-22T06:16:06;20.70;52.60
81216;DHT22;70688;52.492;13.420;2023-07-22T06:18:31;20.90;52.10
81216;DHT22;70688;52.492;13.420;2023-07-22T06:20:57;21.20;50.50
81216;DHT22;70688;52.492;13.420;2023-07-22T06:23:22;22.00;48.70
81216;DHT22;70688;52.492;13.420;2023-07-22T06:25:48;22.70;46.80
81216;DHT22;70688;52.492;13.420;2023-07-22T06:28:14;22.90;45.70
81216;DHT22;70688;52.492;13.420;2023-07-22T06:30:39;22.30;46.90
81216;DHT22;70688;52.492;13.420;2023-07-22T06:33:05;21.70;48.40
81216;DHT22;70688;52.492;13.420;2023-07-22T06:35:31;21.40;49.50
81216;DHT22;70688;52.492;13.420;2023-07-22T06:37:56;20.70;51.30
81216;DHT22;70688;52.492;13.420;2023-07-22T06:40:24;20.60;51.50
81216;DHT22;70688;52.492;13.420;2023-07-22T06:42:50;20.80;51.00
81216;DHT22;70688;52.492;13.420;2023-07-22T06:45:15;21.70;48.40
81216;DHT22;70688;52.492;13.420;2023-07-22T06:47:41;22.00;47.30
81216;DHT22;70688;52.492;13.420;2023-07-22T06:50:06;22.30;45.90
81216;DHT22;70688;52.492;13.420;2023-07-22T06:52:33;22.50;45.20
81216;DHT22;70688;52.492;13.420;2023-07-22T06:54:58;22.20;45.70
81216;DHT22;70688;52.492;13.420;2023-07-22T06:57:24;22.00;45.30
81216;DHT22;70688;52.492;13.420;2023-07-22T06:59:54;22.30;44.60
81216;DHT22;70688;52.492;13.420;2023-07-22T07:02:21;23.00;43.20
81216;DHT22;70688;52.492;13.420;2023-07-22T07:04:47;23.10;42.70
81216;DHT22;70688;52.492;13.420;2023-07-22T07:07:13;23.20;42.00
81216;DHT22;70688;52.492;13.420;2023-07-22T07:09:39;23.40;41.40
81216;DHT22;70688;52.492;13.420;2023-07-22T07:12:06;23.10;42.00
81216;DHT22;70688;52.492;13.420;2023-07-22T07:14:33;23.40;41.10
81216;DHT22;70688;52.492;13.420;2023-07-22T07:16:59;23.80;39.80
81216;DHT22;70688;52.492;13.420;2023-07-22T07:19:24;24.50;38.00
81216;DHT22;70688;52.492;13.420;2023-07-22T07:21:50;25.20;36.20
81216;DHT22;70688;52.492;13.420;2023-07-22T07:24:15;25.70;35.10
81216;DHT22;70688;52.492;13.420;2023-07-22T07:26:41;26.30;34.20
81216;DHT22;70688;52.492;13.420;2023-07-22T07:29:07;25.80;33.60
81216;DHT22;70688;52.492;13.420;2023-07-22T07:31:33;24.40;36.80
81216;DHT22;70688;52.492;13.420;2023-07-22T07:33:59;24.40;37.50
81216;DHT22;70688;52.492;13.420;2023-07-22T07:36:24;24.70;36.20
81216;DHT22;70688;52.492;13.420;2023-07-22T07:38:50;23.30;38.80
81216;DHT22;70688;52.492;13.420;2023-07-22T07:41:15;23.00;39.70
81216;DHT22;70688;52.492;13.420;2023-07-22T07:43:42;22.80;40.20
81216;DHT22;70688;52.492;13.420;2023-07-22T07:46:27;23.90;37.70
81216;DHT22;70688;52.492;13.420;2023-07-22T07:48:55;25.30;34.90
81216;DHT22;70688;52.492;13.420;2023-07-22T07:51:23;24.70;35.60
81216;DHT22;70688;52.492;13.420;2023-07-22T07:53:50;23.70;37.60
81216;DHT22;70688;52.492;13.420;2023-07-22T07:56:17;23.40;38.70
81216;DHT22;70688;52.492;13.420;2023-07-22T07:58:44;23.20;39.10
81216;DHT22;70688;52.492;13.420;2023-07-22T08:01:11;23.40;39.10
81216;DHT22;70688;52.492;13.420;2023-07-22T08:03:37;24.60;35.20
81216;DHT22;70688;52.492;13.420;2023-07-22T08:06:03;24.90;34.70
81216;DHT22;70688;52.492;13.420;2023-07-22T08:08:29;25.20;34.00
81216;DHT22;70688;52.492;13.420;2023-07-22T08:11:10;25.00;34.20
81216;DHT22;70688;52.492;13.420;2023-07-22T08:13:37;24.70;34.60
81216;DHT22;70688;52.492;13.420;2023-07-22T08:16:07;24.90;34.30
81216;DHT22;70688;52.492;13.420;2023-07-22T08:18:33;24.10;35.70
81216;DHT22;70688;52.492;13.420;2023-07-22T08:21:00;23.30;37.10
81216;DHT22;70688;52.492;13.420;2023-07-22T08:23:26;23.30;37.90
81216;DHT22;70688;52.492;13.420;2023-07-22T08:25:51;23.50;37.10
81216;DHT22;70688;52.492;13.420;2023-07-22T08:28:17;24.20;35.30
81216;DHT22;70688;52.492;13.420;2023-07-22T08:30:43;25.00;33.40
81216;DHT22;70688;52.492;13.420;2023-07-22T08:33:10;26.10;31.30
81216;DHT22;70688;52.492;13.420;2023-07-22T08:35:40;25.00;33.30
81216;DHT22;70688;52.492;13.420;2023-07-22T08:38:06;25.20;33.20
81216;DHT22;70688;52.492;13.420;2023-07-22T08:40:41;25.30;33.00
81216;DHT22;70688;52.492;13.420;2023-07-22T08:43:09;25.30;32.40
81216;DHT22;70688;52.492;13.420;2023-07-22T08:45:36;25.90;31.90
81216;DHT22;70688;52.492;13.420;2023-07-22T08:48:04;26.10;31.40
81216;DHT22;70688;52.492;13.420;2023-07-22T08:50:53;25.50;31.50
81216;DHT22;70688;52.492;13.420;2023-07-22T08:53:20;25.00;32.80
81216;DHT22;70688;52.492;13.420;2023-07-22T08:55:46;24.60;34.00
81216;DHT22;70688;52.492;13.420;2023-07-22T08:58:13;24.50;34.60
81216;DHT22;70688;52.492;13.420;2023-07-22T09:00:40;23.80;35.90
81216;DHT22;70688;52.492;13.420;2023-07-22T09:03:06;23.70;35.80
81216;DHT22;70688;52.492;13.420;2023-07-22T09:05:33;23.20;36.60
81216;DHT22;70688;52.492;13.420;2023-07-22T09:08:01;23.00;37.00
81216;DHT22;70688;52.492;13.420;2023-07-22T09:10:27;22.60;38.00
81216;DHT22;70688;52.492;13.420;2023-07-22T09:12:54;22.70;37.70
81216;DHT22;70688;52.492;13.420;2023-07-22T09:15:20;23.70;36.00
81216;DHT22;70688;52.492;13.420;2023-07-22T09:17:47;24.70;33.20
81216;DHT22;70688;52.492;13.420;2023-07-22T09:20:13;24.40;34.10
81216;DHT22;70688;52.492;13.420;2023-07-22T09:22:50;24.10;34.40
81216;DHT22;70688;52.492;13.420;2023-07-22T09:25:21;23.90;34.90
81216;DHT22;70688;52.492;13.420;2023-07-22T09:27:51;24.70;33.60
81216;DHT22;70688;52.492;13.420;2023-07-22T09:30:27;25.40;32.00
81216;DHT22;70688;52.492;13.420;2023-07-22T09:32:55;25.70;31.70
81216;DHT22;70688;52.492;13.420;2023-07-22T09:35:22;25.70;31.70
81216;DHT22;70688;52.492;13.420;2023-07-22T09:37:48;25.70;31.30
81216;DHT22;70688;52.492;13.420;2023-07-22T09:40:14;26.50;30.00
81216;DHT22;70688;52.492;13.420;2023-07-22T09:42:47;27.00;29.70
81216;DHT22;70688;52.492;13.420;2023-07-22T09:45:13;26.30;29.60
81216;DHT22;70688;52.492;13.420;2023-07-22T09:47:45;25.70;30.20
81216;DHT22;70688;52.492;13.420;2023-07-22T09:50:22;25.30;31.10
81216;DHT22;70688;52.492;13.420;2023-07-22T09:52:56;24.70;32.10
81216;DHT22;70688;52.492;13.420;2023-07-22T09:55:23;24.20;33.30
81216;DHT22;70688;52.492;13.420;2023-07-22T09:57:57;23.70;34.30
81216;DHT22;70688;52.492;13.420;2023-07-22T10:00:25;23.30;35.20
81216;DHT22;70688;52.492;13.420;2023-07-22T10:02:54;23.10;35.90
81216;DHT22;70688;52.492;13.420;2023-07-22T10:05:21;23.20;36.00
81216;DHT22;70688;52.492;13.420;2023-07-22T10:07:58;23.10;36.30
81216;DHT22;70688;52.492;13.420;2023-07-22T10:10:42;22.80;36.20
81216;DHT22;70688;52.492;13.420;2023-07-22T10:13:09;22.70;36.90
81216;DHT22;70688;52.492;13.420;2023-07-22T10:15:36;22.60;37.00
81216;DHT22;70688;52.492;13.420;2023-07-22T10:18:03;22.50;37.10
81216;DHT22;70688;52.492;13.420;2023-07-22T10:20:30;22.60;35.90
81216;DHT22;70688;52.492;13.420;2023-07-22T10:23:00;22.90;35.60
81216;DHT22;70688;52.492;13.420;2023-07-22T10:25:26;22.90;35.60
81216;DHT22;70688;52.492;13.420;2023-07-22T10:27:53;23.00;35.50
81216;DHT22;70688;52.492;13.420;2023-07-22T10:30:19;23.10;35.60
81216;DHT22;70688;52.492;13.420;2023-07-22T10:32:50;23.30;34.80
81216;DHT22;70688;52.492;13.420;2023-07-22T10:38:10;23.10;34.70
81216;DHT22;70688;52.492;13.420;2023-07-22T10:40:52;23.30;34.40
81216;DHT22;70688;52.492;13.420;2023-07-22T10:43:23;23.10;34.40
81216;DHT22;70688;52.492;13.420;2023-07-22T10:45:50;23.30;34.80
81216;DHT22;70688;52.492;13.420;2023-07-22T10:48:17;23.20;34.90
81216;DHT22;70688;52.492;13.420;2023-07-22T10:50:51;23.30;34.40
81216;DHT22;70688;52.492;13.420;2023-07-22T10:56:11;23.60;33.60
81216;DHT22;70688;52.492;13.420;2023-07-22T11:11:55;23.10;34.10
81216;DHT22;70688;52.492;13.420;2023-07-22T11:14:23;23.20;34.10
81216;DHT22;70688;52.492;13.420;2023-07-22T11:16:49;23.20;34.40
81216;DHT22;70688;52.492;13.420;2023-07-22T11:19:16;23.30;34.10
81216;DHT22;70688;52.492;13.420;2023-07-22T11:21:42;22.90;35.00
81216;DHT22;70688;52.492;13.420;2023-07-22T11:24:08;23.10;34.80
81216;DHT22;70688;52.492;13.420;2023-07-22T11:26:34;22.90;34.70
81216;DHT22;70688;52.492;13.420;2023-07-22T11:29:01;23.20;34.50
81216;DHT22;70688;52.492;13.420;2023-07-22T11:31:33;23.50;33.40
81216;DHT22;70688;52.492;13.420;2023-07-22T11:33:59;23.60;33.20
81216;DHT22;70688;52.492;13.420;2023-07-22T11:36:28;23.90;32.60
81216;DHT22;70688;52.492;13.420;2023-07-22T11:39:04;24.00;32.50
81216;DHT22;70688;52.492;13.420;2023-07-22T11:41:30;24.00;32.50
81216;DHT22;70688;52.492;13.420;2023-07-22T11:43:59;24.00;32.80
81216;DHT22;70688;52.492;13.420;2023-07-22T11:46:26;24.10;32.50
81216;DHT22;70688;52.492;13.420;2023-07-22T11:48:53;23.70;33.30
81216;DHT22;70688;52.492;13.420;2023-07-22T11:51:23;23.80;32.90
81216;DHT22;70688;52.492;13.420;2023-07-22T11:53:50;24.00;32.70
81216;DHT22;70688;52.492;13.420;2023-07-22T11:56:23;23.90;32.80
81216;DHT22;70688;52.492;13.420;2023-07-22T11:58:53;23.90;33.00
81216;DHT22;70688;52.492;13.420;2023-07-22T12:01:19;24.00;32.70
81216;DHT22;70688;52.492;13.420;2023-07-22T12:03:46;24.00;33.70
81216;DHT22;70688;52.492;13.420;2023-07-22T12:06:12;24.10;32.80
81216;DHT22;70688;52.492;13.420;2023-07-22T12:08:46;24.30;32.20
81216;DHT22;70688;52.492;13.420;2023-07-22T12:11:16;24.10;32.00
81216;DHT22;70688;52.492;13.420;2023-07-22T12:13:42;24.10;31.30
81216;DHT22;70688;52.492;13.420;2023-07-22T12:16:11;24.10;31.60
81216;DHT22;70688;52.492;13.420;2023-07-22T12:18:44;24.20;30.80
81216;DHT22;70688;52.492;13.420;2023-07-22T12:21:29;24.10;31.30
81216;DHT22;70688;52.492;13.420;2023-07-22T12:24:21;23.80;31.60
81216;DHT22;70688;52.492;13.420;2023-07-22T12:26:46;23.90;32.20
81216;DHT22;70688;52.492;13.420;2023-07-22T12:29:12;24.20;31.10
81216;DHT22;70688;52.492;13.420;2023-07-22T12:31:38;24.10;31.40
81216;DHT22;70688;52.492;13.420;2023-07-22T12:34:03;24.20;31.70
81216;DHT22;70688;52.492;13.420;2023-07-22T12:36:29;24.30;31.40
81216;DHT22;70688;52.492;13.420;2023-07-22T12:38:54;24.30;31.70
81216;DHT22;70688;52.492;13.420;2023-07-22T12:41:20;24.40;31.10
81216;DHT22;70688;52.492;13.420;2023-07-22T12:43:46;24.40;30.80
81216;DHT22;70688;52.492;13.420;2023-07-22T12:46:11;24.50;30.50
81216;DHT22;70688;52.492;13.420;2023-07-22T12:48:37;24.30;30.80
81216;DHT22;70688;52.492;13.420;2023-07-22T12:51:03;23.90;31.60
81216;DHT22;70688;52.492;13.420;2023-07-22T12:53:28;24.30;31.10
81216;DHT22;70688;52.492;13.420;2023-07-22T12:55:56;24.00;31.70
81216;DHT22;70688;52.492;13.420;2023-07-22T12:58:21;24.30;31.00
81216;DHT22;70688;52.492;13.420;2023-07-22T13:00:47;24.50;30.60
81216;DHT22;70688;52.492;13.420;2023-07-22T13:03:12;24.30;31.80
81216;DHT22;70688;52.492;13.420;2023-07-22T13:05:38;24.50;31.10
81216;DHT22;70688;52.492;13.420;2023-07-22T13:08:04;24.50;30.90
81216;DHT22;70688;52.492;13.420;2023-07-22T13:10:29;24.60;30.80
81216;DHT22;70688;52.492;13.420;2023-07-22T13:12:56;24.70;29.90
81216;DHT22;70688;52.492;13.420;2023-07-22T13:15:22;24.70;30.30
81216;DHT22;70688;52.492;13.420;2023-07-22T13:17:48;24.70;30.30
81216;DHT22;70688;52.492;13.420;2023-07-22T13:20:16;24.60;30.50
81216;DHT22;70688;52.492;13.420;2023-07-22T13:22:42;24.50;31.10
81216;DHT22;70688;52.492;13.420;2023-07-22T13:25:08;24.40;31.00
81216;DHT22;70688;52.492;13.420;2023-07-22T13:27:36;24.50;30.50
81216;DHT22;70688;52.492;13.420;2023-07-22T13:30:08;24.50;31.00
81216;DHT22;70688;52.492;13.420;2023-07-22T13:32:34;24.70;30.30
81216;DHT22;70688;52.492;13.420;2023-07-22T13:35:00;24.40;30.40
81216;DHT22;70688;52.492;13.420;2023-07-22T13:37:26;24.30;31.30
81216;DHT22;70688;52.492;13.420;2023-07-22T13:39:51;24.40;30.60
81216;DHT22;70688;52.492;13.420;2023-07-22T13:42:18;24.80;30.30
81216;DHT22;70688;52.492;13.420;2023-07-22T13:44:44;24.70;30.20
81216;DHT22;70688;52.492;13.420;2023-07-22T13:47:10;24.80;30.00
81216;DHT22;70688;52.492;13.420;2023-07-22T13:49:35;24.60;30.50
81216;DHT22;70688;52.492;13.420;2023-07-22T13:52:01;24.70;30.20
81216;DHT22;70688;52.492;13.420;2023-07-22T13:54:27;24.70;30.20
81216;DHT22;70688;52.492;13.420;2023-07-22T13:56:52;24.60;30.60
81216;DHT22;70688;52.492;13.420;2023-07-22T13:59:18;24.60;31.00
81216;DHT22;70688;52.492;13.420;2023-07-22T14:01:43;24.70;30.30
81216;DHT22;70688;52.492;13.420;2023-07-22T14:04:09;24.30;31.20
81216;DHT22;70688;52.492;13.420;2023-07-22T14:06:34;24.50;30.80
81216;DHT22;70688;52.492;13.420;2023-07-22T14:09:00;24.50;30.50
81216;DHT22;70688;52.492;13.420;2023-07-22T14:11:26;24.20;31.70
81216;DHT22;70688;52.492;13.420;2023-07-22T14:13:51;23.90;32.70
81216;DHT22;70688;52.492;13.420;2023-07-22T14:16:18;24.00;32.00
81216;DHT22;70688;52.492;13.420;2023-07-22T14:18:43;23.80;32.30
81216;DHT22;70688;52.492;13.420;2023-07-22T14:21:10;23.80;32.50
81216;DHT22;70688;52.492;13.420;2023-07-22T14:23:37;23.40;32.80
81216;DHT22;70688;52.492;13.420;2023-07-22T14:26:02;23.50;32.50
81216;DHT22;70688;52.492;13.420;2023-07-22T14:28:28;23.90;31.90
81216;DHT22;70688;52.492;13.420;2023-07-22T14:30:53;24.10;31.50
81216;DHT22;70688;52.492;13.420;2023-07-22T14:33:19;24.10;31.40
81216;DHT22;70688;52.492;13.420;2023-07-22T14:35:45;24.20;31.80
81216;DHT22;70688;52.492;13.420;2023-07-22T14:38:10;24.30;31.40
81216;DHT22;70688;52.492;13.420;2023-07-22T14:40:36;24.20;31.90
81216;DHT22;70688;52.492;13.420;2023-07-22T14:43:02;24.30;31.10
81216;DHT22;70688;52.492;13.420;2023-07-22T14:45:28;24.40;31.10
81216;DHT22;70688;52.492;13.420;2023-07-22T14:47:54;24.40;30.90
81216;DHT22;70688;52.492;13.420;2023-07-22T14:50:19;24.20;31.30
81216;DHT22;70688;52.492;13.420;2023-07-22T14:52:45;24.30;31.30
81216;DHT22;70688;52.492;13.420;2023-07-22T14:55:10;24.10;31.90
81216;DHT22;70688;52.492;13.420;2023-07-22T14:57:36;24.30;31.30
81216;DHT22;70688;52.492;13.420;2023-07-22T15:00:03;24.30;31.00
81216;DHT22;70688;52.492;13.420;2023-07-22T15:02:29;24.20;31.30
81216;DHT22;70688;52.492;13.420;2023-07-22T15:04:55;24.30;31.40
81216;DHT22;70688;52.492;13.420;2023-07-22T15:07:22;24.10;31.40
81216;DHT22;70688;52.492;13.420;2023-07-22T15:09:47;24.10;31.40
81216;DHT22;70688;52.492;13.420;2023-07-22T15:12:13;24.00;31.50
81216;DHT22;70688;52.492;13.420;2023-07-22T15:14:39;24.20;31.30
81216;DHT22;70688;52.492;13.420;2023-07-22T15:17:05;24.30;31.30
81216;DHT22;70688;52.492;13.420;2023-07-22T15:19:31;24.20;31.60
81216;DHT22;70688;52.492;13.420;2023-07-22T15:21:56;24.20;31.40
81216;DHT22;70688;52.492;13.420;2023-07-22T15:24:22;24.30;31.60
81216;DHT22;70688;52.492;13.420;2023-07-22T15:26:47;24.10;31.90
81216;DHT22;70688;52.492;13.420;2023-07-22T15:29:13;24.10;31.80
81216;DHT22;70688;52.492;13.420;2023-07-22T15:31:39;23.90;31.90